createdAt,value
2018-07-16T00:00:59.708Z,53.68
2018-07-16T00:02:05.407Z,53.86
2018-07-16T00:03:10.036Z,53.74
2018-07-16T00:04:15.108Z,54.15
2018-07-16T00:05:20.514Z,54.30
2018-07-16T00:06:25.228Z,54.81
2018-07-16T00:07:30.167Z,55.19
2018-07-16T00:08:35.407Z,55.60
2018-07-16T00:09:40.016Z,55.70
2018-07-16T00:10:44.931Z,55.60
2018-07-16T00:11:50.359Z,55.54
2018-07-16T00:12:55.141Z,55.40
2018-07-16T00:14:01.011Z,55.32
2018-07-16T00:15:06.907Z,55.38
2018-07-16T00:16:11.599Z,55.34
2018-07-16T00:17:19.279Z,55.28
2018-07-16T00:18:25.355Z,55.40
2018-07-16T00:19:32.014Z,55.24
2018-07-16T00:20:36.878Z,55.27
2018-07-16T00:21:44.000Z,55.30
2018-07-16T00:22:48.863Z,55.18
2018-07-16T00:23:54.158Z,55.44
2018-07-16T00:24:59.011Z,55.76
2018-07-16T00:26:03.907Z,56.04
2018-07-16T00:27:09.926Z,56.40
2018-07-16T00:28:15.020Z,56.82
2018-07-16T00:29:23.164Z,57.03
2018-07-16T00:30:27.924Z,57.42
2018-07-16T00:31:33.679Z,57.68
2018-07-16T00:32:42.058Z,58.32
2018-07-16T00:33:47.106Z,58.41
2018-07-16T00:34:54.040Z,58.58
2018-07-16T00:35:58.817Z,58.41
2018-07-16T00:37:04.138Z,58.53
2018-07-16T00:38:08.899Z,58.38
2018-07-16T00:39:14.211Z,58.61
2018-07-16T00:40:19.647Z,58.66
2018-07-16T00:41:25.267Z,58.91
2018-07-16T00:42:31.034Z,58.88
2018-07-16T00:43:35.737Z,59.04
2018-07-16T00:44:40.714Z,59.05
2018-07-16T00:45:45.608Z,59.29
2018-07-16T00:46:50.413Z,59.76
2018-07-16T00:47:55.206Z,59.74
2018-07-16T00:48:59.950Z,60.01
2018-07-16T00:50:05.136Z,60.13
2018-07-16T00:51:09.888Z,60.17
2018-07-16T00:52:14.978Z,60.16
2018-07-16T00:53:19.731Z,60.13
2018-07-16T00:54:24.479Z,59.83
2018-07-16T00:55:29.228Z,59.72
2018-07-16T00:56:34.884Z,59.89
2018-07-16T00:57:41.989Z,59.77
2018-07-16T00:58:56.886Z,59.64
2018-07-16T01:00:04.633Z,59.58
2018-07-16T01:01:10.872Z,59.71
2018-07-16T01:02:16.701Z,59.84
2018-07-16T01:03:22.428Z,59.82
2018-07-16T01:04:28.637Z,59.90
2018-07-16T01:05:33.598Z,59.86
2018-07-16T01:06:38.260Z,59.76
2018-07-16T01:07:42.902Z,59.60
2018-07-16T01:08:47.596Z,59.59
2018-07-16T01:09:52.312Z,59.65
2018-07-16T01:10:57.026Z,59.56
2018-07-16T01:12:01.977Z,59.65
2018-07-16T01:13:06.711Z,59.47
2018-07-16T01:14:11.366Z,59.34
2018-07-16T01:15:16.045Z,59.54
2018-07-16T01:16:20.763Z,59.47
2018-07-16T01:17:25.417Z,59.56
2018-07-16T01:18:30.645Z,60.27
2018-07-16T01:19:35.347Z,61.60
2018-07-16T01:20:39.988Z,62.54
2018-07-16T01:21:46.078Z,63.61
2018-07-16T01:22:50.747Z,63.98
2018-07-16T01:23:55.408Z,63.69
2018-07-16T01:25:00.349Z,63.38
2018-07-16T01:26:05.049Z,63.17
2018-07-16T01:27:09.697Z,62.78
2018-07-16T01:28:14.388Z,62.56
2018-07-16T01:29:18.905Z,62.54
2018-07-16T01:30:23.409Z,62.25
2018-07-16T01:31:28.314Z,62.30
2018-07-16T01:32:32.853Z,62.31
2018-07-16T01:33:37.458Z,61.81
2018-07-16T01:34:41.983Z,61.82
2018-07-16T01:35:46.542Z,61.94
2018-07-16T01:36:51.078Z,61.46
2018-07-16T01:37:55.896Z,61.61
2018-07-16T01:39:00.506Z,61.52
2018-07-16T01:40:05.137Z,61.54
2018-07-16T01:41:09.690Z,61.93
2018-07-16T01:42:14.941Z,62.61
2018-07-16T01:43:19.508Z,63.31
2018-07-16T01:44:25.157Z,64.08
2018-07-16T01:45:29.691Z,64.28
2018-07-16T01:46:34.275Z,64.27
2018-07-16T01:47:38.819Z,64.02
2018-07-16T01:48:43.333Z,63.92
2018-07-16T01:49:47.921Z,63.56
2018-07-16T01:50:52.730Z,63.46
2018-07-16T01:51:57.259Z,63.49
2018-07-16T01:53:01.850Z,63.45
2018-07-16T01:54:06.425Z,63.52
2018-07-16T01:55:11.044Z,63.67
2018-07-16T01:56:15.869Z,63.71
2018-07-16T01:57:20.821Z,63.68
2018-07-16T01:58:25.488Z,63.69
2018-07-16T01:59:30.129Z,63.45
2018-07-16T02:00:36.986Z,63.51
2018-07-16T02:01:41.690Z,63.50
2018-07-16T02:02:47.478Z,63.51
2018-07-16T02:03:52.541Z,63.62
2018-07-16T02:04:57.096Z,63.65
2018-07-16T02:06:02.409Z,63.54
2018-07-16T02:07:07.458Z,63.48
2018-07-16T02:08:11.990Z,63.70
2018-07-16T02:09:16.622Z,63.77
2018-07-16T02:10:21.503Z,63.94
2018-07-16T02:11:26.330Z,63.98
2018-07-16T02:12:31.783Z,64.31
2018-07-16T02:13:43.776Z,64.91
2018-07-16T02:14:49.756Z,65.37
2018-07-16T02:15:54.339Z,65.33
2018-07-16T02:17:00.687Z,65.51
2018-07-16T02:18:06.044Z,65.64
2018-07-16T02:19:10.600Z,65.71
2018-07-16T02:20:16.369Z,65.78
2018-07-16T02:21:21.503Z,65.86
2018-07-16T02:22:26.169Z,66.17
2018-07-16T02:23:31.575Z,65.96
2018-07-16T02:24:36.149Z,66.16
2018-07-16T02:25:40.895Z,66.24
2018-07-16T02:26:45.862Z,66.50
2018-07-16T02:27:50.643Z,66.40
2018-07-16T02:28:56.152Z,66.41
2018-07-16T02:30:01.172Z,66.36
2018-07-16T02:31:06.079Z,66.12
2018-07-16T02:32:10.896Z,65.98
2018-07-16T02:33:16.170Z,65.70
2018-07-16T02:34:20.966Z,65.87
2018-07-16T02:35:26.072Z,65.85
2018-07-16T02:36:31.835Z,65.64
2018-07-16T02:37:38.369Z,65.73
2018-07-16T02:38:43.221Z,65.69
2018-07-16T02:39:47.933Z,65.46
2018-07-16T02:40:52.496Z,65.54
2018-07-16T02:41:57.431Z,65.49
2018-07-16T02:43:02.375Z,65.55
2018-07-16T02:44:07.562Z,65.31
2018-07-16T02:45:12.360Z,65.32
2018-07-16T02:46:16.910Z,65.27
2018-07-16T02:47:21.673Z,65.47
2018-07-16T02:48:26.284Z,65.40
2018-07-16T02:49:31.280Z,65.64
2018-07-16T02:50:35.865Z,65.63
2018-07-16T02:51:40.539Z,65.58
2018-07-16T02:52:48.993Z,65.51
2018-07-16T02:53:53.587Z,65.86
2018-07-16T02:54:58.177Z,66.65
2018-07-16T02:56:03.854Z,66.89
2018-07-16T02:57:08.486Z,66.95
2018-07-16T02:58:13.361Z,66.76
2018-07-16T02:59:18.966Z,66.47
2018-07-16T03:00:23.731Z,66.55
2018-07-16T03:01:29.962Z,66.65
2018-07-16T03:02:37.922Z,66.54
2018-07-16T03:03:42.648Z,66.34
2018-07-16T03:04:47.854Z,66.54
2018-07-16T03:05:53.113Z,66.50
2018-07-16T03:06:57.758Z,66.58
2018-07-16T03:08:02.558Z,66.37
2018-07-16T03:09:08.934Z,66.44
2018-07-16T03:10:13.822Z,66.53
2018-07-16T03:11:18.475Z,66.81
2018-07-16T03:12:23.304Z,66.75
2018-07-16T03:13:27.898Z,66.77
2018-07-16T03:14:32.614Z,66.64
2018-07-16T03:15:37.898Z,66.71
2018-07-16T03:16:43.403Z,67.06
2018-07-16T03:17:48.621Z,67.40
2018-07-16T03:18:54.250Z,67.38
2018-07-16T03:20:02.863Z,67.31
2018-07-16T03:21:08.919Z,67.36
2018-07-16T03:22:14.585Z,67.44
2018-07-16T03:23:19.213Z,67.42
2018-07-16T03:24:23.806Z,67.30
2018-07-16T03:25:28.658Z,67.37
2018-07-16T03:26:34.902Z,67.39
2018-07-16T03:27:39.737Z,66.98
2018-07-16T03:28:44.633Z,67.12
2018-07-16T03:29:49.227Z,67.22
2018-07-16T03:30:53.769Z,67.26
2018-07-16T03:31:58.372Z,67.32
2018-07-16T03:33:03.027Z,67.48
2018-07-16T03:34:07.880Z,67.59
2018-07-16T03:35:12.770Z,67.91
2018-07-16T03:36:17.535Z,68.01
2018-07-16T03:37:22.209Z,67.96
2018-07-16T03:38:26.861Z,67.71
2018-07-16T03:39:31.546Z,67.77
2018-07-16T03:40:36.241Z,67.83
2018-07-16T03:41:41.235Z,67.78
2018-07-16T03:42:45.953Z,67.66
2018-07-16T03:43:50.621Z,67.78
2018-07-16T03:44:55.329Z,67.86
2018-07-16T03:46:00.009Z,67.81
2018-07-16T03:47:04.776Z,67.79
2018-07-16T03:48:09.534Z,67.85
2018-07-16T03:49:14.249Z,67.78
2018-07-16T03:50:18.931Z,67.75
2018-07-16T03:51:23.720Z,67.62
2018-07-16T03:52:28.483Z,67.45
2018-07-16T03:53:33.027Z,67.39
2018-07-16T03:54:37.891Z,67.11
2018-07-16T03:55:42.554Z,67.10
2018-07-16T03:56:47.095Z,67.11
2018-07-16T03:57:51.654Z,67.29
2018-07-16T03:58:56.220Z,67.14
2018-07-16T04:00:00.787Z,67.24
2018-07-16T04:01:05.395Z,66.92
2018-07-16T04:02:10.005Z,67.16
2018-07-16T04:03:14.589Z,67.37
2018-07-16T04:04:21.692Z,67.06
2018-07-16T04:05:26.609Z,67.12
2018-07-16T04:06:31.150Z,66.92
2018-07-16T04:07:35.726Z,66.84
2018-07-16T04:08:40.370Z,66.85
2018-07-16T04:09:45.578Z,66.80
2018-07-16T04:10:50.140Z,66.61
2018-07-16T04:11:55.198Z,66.76
2018-07-16T04:13:00.527Z,66.67
2018-07-16T04:14:05.172Z,66.50
2018-07-16T04:15:10.858Z,66.43
2018-07-16T04:16:15.440Z,66.27
2018-07-16T04:17:20.156Z,66.29
2018-07-16T04:18:24.992Z,66.27
2018-07-16T04:19:29.581Z,66.03
2018-07-16T04:20:34.167Z,65.94
2018-07-16T04:21:38.764Z,66.17
2018-07-16T04:22:43.309Z,65.97
2018-07-16T04:23:48.098Z,65.87
2018-07-16T04:24:52.695Z,66.10
2018-07-16T04:25:57.416Z,66.15
2018-07-16T04:27:03.452Z,65.96
2018-07-16T04:28:08.941Z,66.20
2018-07-16T04:29:13.663Z,66.02
2018-07-16T04:30:18.732Z,65.92
2018-07-16T04:31:25.352Z,65.92
2018-07-16T04:32:30.057Z,66.02
2018-07-16T04:33:34.761Z,66.74
2018-07-16T04:34:41.451Z,67.52
2018-07-16T04:35:46.580Z,67.99
2018-07-16T04:36:51.273Z,68.02
2018-07-16T04:37:56.017Z,67.79
2018-07-16T04:39:01.514Z,67.65
2018-07-16T04:40:06.210Z,67.48
2018-07-16T04:41:11.022Z,67.18
2018-07-16T04:42:16.153Z,66.91
2018-07-16T04:43:20.857Z,67.07
2018-07-16T04:44:25.543Z,67.19
2018-07-16T04:45:30.230Z,67.21
2018-07-16T04:46:35.882Z,67.42
2018-07-16T04:47:40.478Z,67.47
2018-07-16T04:48:46.270Z,67.34
2018-07-16T04:49:52.374Z,67.99
2018-07-16T04:50:58.437Z,68.29
2018-07-16T04:52:03.009Z,68.32
2018-07-16T04:53:08.490Z,68.27
2018-07-16T04:54:13.060Z,68.13
2018-07-16T04:55:17.967Z,67.89
2018-07-16T04:56:22.543Z,67.98
2018-07-16T04:57:27.083Z,67.75
2018-07-16T04:58:31.669Z,67.74
2018-07-16T04:59:36.267Z,67.50
2018-07-16T05:00:40.884Z,67.26
2018-07-16T05:01:45.800Z,67.42
2018-07-16T05:02:50.398Z,67.46
2018-07-16T05:03:55.019Z,67.35
2018-07-16T05:04:59.583Z,67.68
2018-07-16T05:06:04.476Z,67.61
2018-07-16T05:07:09.067Z,67.68
2018-07-16T05:08:13.966Z,67.54
2018-07-16T05:09:18.562Z,67.40
2018-07-16T05:10:23.159Z,67.30
2018-07-16T05:11:27.733Z,67.44
2018-07-16T05:12:32.314Z,67.17
2018-07-16T05:13:36.868Z,67.33
2018-07-16T05:14:41.467Z,67.30
2018-07-16T05:15:46.104Z,67.17
2018-07-16T05:16:50.709Z,66.99
2018-07-16T05:17:55.296Z,66.95
2018-07-16T05:18:59.882Z,66.90
2018-07-16T05:20:04.870Z,67.04
2018-07-16T05:21:09.439Z,67.11
2018-07-16T05:22:14.039Z,67.17
2018-07-16T05:23:18.659Z,66.67
2018-07-16T05:24:23.224Z,67.07
2018-07-16T05:25:27.811Z,66.92
2018-07-16T05:26:32.717Z,67.07
2018-07-16T05:27:37.356Z,66.99
2018-07-16T05:28:41.988Z,66.94
2018-07-16T05:29:46.617Z,66.84
2018-07-16T05:30:51.338Z,66.68
2018-07-16T05:31:56.200Z,66.73
2018-07-16T05:33:08.441Z,66.60
2018-07-16T05:34:13.161Z,66.52
2018-07-16T05:35:17.915Z,66.61
2018-07-16T05:36:22.583Z,66.62
2018-07-16T05:37:28.526Z,66.98
2018-07-16T05:38:33.248Z,67.69
2018-07-16T05:39:38.238Z,68.28
2018-07-16T05:40:42.957Z,68.00
2018-07-16T05:41:47.664Z,67.92
2018-07-16T05:42:52.397Z,68.24
2018-07-16T05:43:57.123Z,68.18
2018-07-16T05:45:01.817Z,68.14
2018-07-16T05:46:07.899Z,67.91
2018-07-16T05:47:12.687Z,67.68
2018-07-16T05:48:18.431Z,67.38
2018-07-16T05:49:23.100Z,67.33
2018-07-16T05:50:27.792Z,67.29
2018-07-16T05:51:35.496Z,67.21
2018-07-16T05:52:40.536Z,67.05
2018-07-16T05:53:45.217Z,66.83
2018-07-16T05:54:50.532Z,66.62
2018-07-16T05:55:55.507Z,66.62
2018-07-16T05:57:00.237Z,66.41
2018-07-16T05:58:04.954Z,66.37
2018-07-16T05:59:10.242Z,65.84
2018-07-16T06:00:14.977Z,65.76
2018-07-16T06:01:20.478Z,65.88
2018-07-16T06:02:25.227Z,65.81
2018-07-16T06:03:30.425Z,65.37
2018-07-16T06:04:35.153Z,65.11
2018-07-16T06:05:40.243Z,64.79
2018-07-16T06:06:44.953Z,64.90
2018-07-16T06:07:50.485Z,65.06
2018-07-16T06:08:55.190Z,64.97
2018-07-16T06:10:00.867Z,64.78
2018-07-16T06:11:06.620Z,64.90
2018-07-16T06:12:11.597Z,64.58
2018-07-16T06:13:16.277Z,64.11
2018-07-16T06:14:21.002Z,63.88
2018-07-16T06:15:25.662Z,63.75
2018-07-16T06:16:31.694Z,63.08
2018-07-16T06:17:36.777Z,62.98
2018-07-16T06:18:42.396Z,62.85
2018-07-16T06:19:50.054Z,62.70
2018-07-16T06:20:54.818Z,62.49
2018-07-16T06:21:59.523Z,62.17
2018-07-16T06:23:04.205Z,62.31
2018-07-16T06:24:11.032Z,62.25
2018-07-16T06:25:15.668Z,62.08
2018-07-16T06:26:20.484Z,62.11
2018-07-16T06:27:25.975Z,61.95
2018-07-16T06:28:30.539Z,61.57
2018-07-16T06:29:35.586Z,61.24
2018-07-16T06:30:40.630Z,61.53
2018-07-16T06:31:48.775Z,61.16
2018-07-16T06:32:54.974Z,61.03
2018-07-16T06:34:01.998Z,60.77
2018-07-16T06:35:06.611Z,60.41
2018-07-16T06:36:11.229Z,60.38
2018-07-16T06:37:16.395Z,60.26
2018-07-16T06:38:21.797Z,60.15
2018-07-16T06:39:26.510Z,59.50
2018-07-16T06:40:31.174Z,59.77
2018-07-16T06:41:37.143Z,59.81
2018-07-16T06:42:41.535Z,59.54
2018-07-16T06:43:46.515Z,59.55
2018-07-16T06:44:51.118Z,59.29
2018-07-16T06:45:55.683Z,59.41
2018-07-16T06:47:00.296Z,58.65
2018-07-16T06:48:09.312Z,58.58
2018-07-16T06:49:15.320Z,58.13
2018-07-16T06:50:20.685Z,57.76
2018-07-16T06:51:25.313Z,57.39
2018-07-16T06:52:30.708Z,57.23
2018-07-16T06:53:35.294Z,57.25
2018-07-16T06:54:39.864Z,56.64
2018-07-16T06:55:45.327Z,56.54
2018-07-16T06:56:50.386Z,55.80
2018-07-16T06:57:56.767Z,55.80
2018-07-16T06:59:01.371Z,55.16
2018-07-16T07:00:06.303Z,55.27
2018-07-16T07:01:11.523Z,55.01
2018-07-16T07:02:16.651Z,54.64
2018-07-16T07:03:22.195Z,54.52
2018-07-16T07:04:27.696Z,54.55
2018-07-16T07:05:32.359Z,54.05
2018-07-16T07:06:37.020Z,53.92
2018-07-16T07:07:42.813Z,54.00
2018-07-16T07:08:48.021Z,53.54
2018-07-16T07:09:52.726Z,53.47
2018-07-16T07:10:58.195Z,53.53
2018-07-16T07:12:03.180Z,53.31
2018-07-16T07:13:07.983Z,53.49
2018-07-16T07:14:14.686Z,53.33
2018-07-16T07:15:20.486Z,53.30
2018-07-16T07:16:25.250Z,53.07
2018-07-16T07:17:29.980Z,53.06
2018-07-16T07:18:34.819Z,52.71
2018-07-16T07:19:39.609Z,52.65
2018-07-16T07:20:44.782Z,52.39
2018-07-16T07:21:49.507Z,52.10
2018-07-16T07:22:54.239Z,51.90
2018-07-16T07:23:58.955Z,51.64
2018-07-16T07:25:05.436Z,51.34
2018-07-16T07:26:13.976Z,50.88
2018-07-16T07:27:19.218Z,51.01
2018-07-16T07:28:24.739Z,50.66
2018-07-16T07:29:31.232Z,50.33
2018-07-16T07:30:35.883Z,50.06
2018-07-16T07:32:45.703Z,49.64
2018-07-16T07:33:55.722Z,49.70
2018-07-16T07:35:00.836Z,49.82
2018-07-16T07:36:05.538Z,49.28
2018-07-16T07:37:10.172Z,48.89
2018-07-16T07:38:14.851Z,48.83
2018-07-16T07:39:20.013Z,48.76
2018-07-16T07:40:26.442Z,48.80
2018-07-16T07:41:31.104Z,48.87
2018-07-16T07:42:35.789Z,48.73
2018-07-16T07:43:43.653Z,48.63
2018-07-16T07:44:48.455Z,47.91
2018-07-16T07:47:09.463Z,47.62
2018-07-16T07:48:14.201Z,47.16
2018-07-16T07:49:18.906Z,47.89
2018-07-16T07:50:24.017Z,47.89
2018-07-16T07:51:28.749Z,47.40
2018-07-16T07:52:33.960Z,47.58
2018-07-16T07:53:42.978Z,47.14
2018-07-16T07:54:49.350Z,47.32
2018-07-16T07:55:54.122Z,46.91
2018-07-16T07:57:02.079Z,46.40
2018-07-16T07:58:08.339Z,46.39
2018-07-16T07:59:13.159Z,46.15
2018-07-16T08:00:24.642Z,45.96
2018-07-16T08:01:31.279Z,45.84
2018-07-16T08:02:36.555Z,46.06
2018-07-16T08:03:44.822Z,46.20
2018-07-16T08:04:50.320Z,45.89
2018-07-16T08:06:14.961Z,45.41
2018-07-16T08:07:19.724Z,45.37
2018-07-16T08:08:31.541Z,45.59
2018-07-16T08:09:37.106Z,45.61
2018-07-16T08:10:43.847Z,45.66
2018-07-16T08:11:51.136Z,45.07
2018-07-16T08:12:57.091Z,44.77
2018-07-16T08:14:02.344Z,45.05
2018-07-16T08:15:07.972Z,44.75
2018-07-16T08:16:17.254Z,44.74
2018-07-16T08:17:22.266Z,44.56
2018-07-16T08:18:30.605Z,44.40
2018-07-16T08:19:38.452Z,44.08
2018-07-16T08:20:45.326Z,43.94
2018-07-16T08:21:51.214Z,43.60
2018-07-16T08:22:59.386Z,43.24
2018-07-16T08:24:04.765Z,43.51
2018-07-16T08:25:12.889Z,43.40
2018-07-16T08:26:17.543Z,43.66
2018-07-16T08:27:22.483Z,43.40
2018-07-16T08:28:27.142Z,42.77
2018-07-16T08:29:33.409Z,42.63
2018-07-16T08:30:38.125Z,42.19
2018-07-16T08:31:42.909Z,41.68
2018-07-16T08:32:50.389Z,41.67
2018-07-16T08:33:55.040Z,41.08
2018-07-16T08:34:59.681Z,41.66
2018-07-16T08:36:04.736Z,42.14
2018-07-16T08:37:11.070Z,42.08
2018-07-16T08:38:16.805Z,41.64
2018-07-16T08:39:22.732Z,41.75
2018-07-16T08:40:28.031Z,41.41
2018-07-16T08:41:32.695Z,41.39
2018-07-16T08:42:37.632Z,41.26
2018-07-16T08:43:43.467Z,41.01
2018-07-16T08:44:49.032Z,40.93
2018-07-16T08:45:53.839Z,41.05
2018-07-16T08:47:00.059Z,40.35
2018-07-16T08:48:04.771Z,39.74
2018-07-16T08:49:10.455Z,39.58
2018-07-16T08:50:16.870Z,39.13
2018-07-16T08:51:22.217Z,39.33
2018-07-16T08:52:32.581Z,39.29
2018-07-16T08:53:39.457Z,39.04
2018-07-16T08:54:44.310Z,38.90
2018-07-16T08:55:50.916Z,38.54
2018-07-16T08:56:56.258Z,38.65
2018-07-16T08:58:01.635Z,39.28
2018-07-16T08:59:07.470Z,39.35
2018-07-16T09:00:13.097Z,39.60
2018-07-16T09:01:20.893Z,39.36
2018-07-16T09:02:36.275Z,39.99
2018-07-16T09:03:46.155Z,39.68
2018-07-16T09:04:50.926Z,39.32
2018-07-16T09:06:04.989Z,39.35
2018-07-16T09:07:10.225Z,39.73
2018-07-16T09:08:15.399Z,39.90
2018-07-16T09:09:20.401Z,39.99
2018-07-16T09:10:25.026Z,39.67
2018-07-16T09:11:32.710Z,38.64
2018-07-16T09:18:09.745Z,38.29
2018-07-16T09:19:16.433Z,38.23
2018-07-16T09:20:21.945Z,38.08
2018-07-16T09:21:27.637Z,38.34
2018-07-16T09:22:32.338Z,38.43
2018-07-16T09:23:37.463Z,37.93
2018-07-16T09:24:51.129Z,37.76
2018-07-16T09:25:59.339Z,37.42
2018-07-16T09:27:04.289Z,37.28
2018-07-16T09:28:09.835Z,36.80
2018-07-16T09:29:16.440Z,36.61
2018-07-16T09:30:21.126Z,37.03
2018-07-16T09:31:26.277Z,37.51
2018-07-16T09:32:32.501Z,37.24
2018-07-16T09:33:44.997Z,37.09
2018-07-16T09:34:52.210Z,37.12
2018-07-16T09:36:03.309Z,36.66
2018-07-16T09:37:09.624Z,36.83
2018-07-16T09:38:15.548Z,37.13
2018-07-16T09:39:20.309Z,36.84
2018-07-16T09:40:26.082Z,37.40
2018-07-16T09:41:30.960Z,37.51
2018-07-16T09:42:35.672Z,37.33
2018-07-16T09:43:41.552Z,37.27
2018-07-16T09:44:48.612Z,36.95
2018-07-16T09:45:53.308Z,37.02
2018-07-16T09:47:03.013Z,36.32
2018-07-16T09:48:12.094Z,36.32
2018-07-16T09:49:17.655Z,35.99
2018-07-16T09:50:22.977Z,35.86
2018-07-16T09:51:29.383Z,35.68
2018-07-16T09:52:39.086Z,35.51
2018-07-16T09:53:44.107Z,35.30
2018-07-16T09:54:48.996Z,35.17
2018-07-16T09:55:53.759Z,34.58
2018-07-16T09:56:58.900Z,34.55
2018-07-16T09:58:04.287Z,34.52
2018-07-16T09:59:09.817Z,34.66
2018-07-16T10:00:18.195Z,34.81
2018-07-16T10:01:28.258Z,34.49
2018-07-16T10:02:34.035Z,35.06
2018-07-16T10:03:39.510Z,34.96
2018-07-16T10:04:44.872Z,35.30
2018-07-16T10:05:51.284Z,34.81
2018-07-16T10:07:04.488Z,34.29
2018-07-16T10:08:09.652Z,33.46
2018-07-16T10:09:14.455Z,33.46
2018-07-16T10:10:22.092Z,33.59
2018-07-16T10:11:26.877Z,33.92
2018-07-16T10:12:38.170Z,33.94
2018-07-16T10:13:47.499Z,33.55
2018-07-16T10:15:00.294Z,33.02
2018-07-16T10:17:34.468Z,32.80
2018-07-16T10:18:46.596Z,32.79
2018-07-16T10:19:51.327Z,32.39
2018-07-16T10:21:01.120Z,32.83
2018-07-16T10:22:07.169Z,32.87
2018-07-16T10:23:12.768Z,32.55
2018-07-16T10:24:17.446Z,32.80
2018-07-16T10:25:22.498Z,32.49
2018-07-16T10:26:27.076Z,32.54
2018-07-16T10:27:33.030Z,32.24
2018-07-16T10:28:39.651Z,32.74
2018-07-16T10:29:44.350Z,33.05
2018-07-16T10:30:49.059Z,32.75
2018-07-16T10:31:57.138Z,32.61
2018-07-16T10:33:01.928Z,32.28
2018-07-16T10:34:07.478Z,32.28
2018-07-16T10:35:12.182Z,32.07
2018-07-16T10:36:17.296Z,31.67
2018-07-16T10:37:22.413Z,31.92
2018-07-16T10:38:27.189Z,31.48
2018-07-16T10:39:31.919Z,31.87
2018-07-16T10:40:37.759Z,31.68
2018-07-16T10:41:44.668Z,32.07
2018-07-16T10:42:50.491Z,31.58
2018-07-16T10:43:55.959Z,31.92
2018-07-16T10:45:02.382Z,31.79
2018-07-16T10:46:10.518Z,31.72
2018-07-16T10:47:15.177Z,31.67
2018-07-16T10:48:23.478Z,31.72
2018-07-16T10:49:29.004Z,31.37
2018-07-16T10:50:34.476Z,30.99
2018-07-16T10:51:40.003Z,30.93
2018-07-16T10:52:46.046Z,31.28
2018-07-16T10:53:51.444Z,31.61
2018-07-16T10:54:58.226Z,31.50
2018-07-16T10:56:05.558Z,31.29
2018-07-16T10:57:11.483Z,31.09
2018-07-16T10:58:16.319Z,31.07
2018-07-16T10:59:21.288Z,30.83
2018-07-16T11:00:26.187Z,30.54
2018-07-16T11:01:32.329Z,30.60
2018-07-16T11:02:38.249Z,30.65
2018-07-16T11:03:43.685Z,30.39
2018-07-16T11:04:48.278Z,30.72
2018-07-16T11:05:55.006Z,31.36
2018-07-16T11:07:00.593Z,31.77
2018-07-16T11:08:06.356Z,31.71
2018-07-16T11:09:11.571Z,32.01
2018-07-16T11:10:16.939Z,32.28
2018-07-16T11:11:22.833Z,32.30
2018-07-16T11:12:28.323Z,32.08
2018-07-16T11:13:34.701Z,31.60
2018-07-16T11:14:42.437Z,31.52
2018-07-16T11:15:48.471Z,31.16
2018-07-16T11:16:54.095Z,31.19
2018-07-16T11:17:59.559Z,30.62
2018-07-16T11:19:05.526Z,30.88
2018-07-16T11:20:11.227Z,31.49
2018-07-16T11:21:17.785Z,31.72
2018-07-16T11:22:22.612Z,32.11
2018-07-16T11:23:27.349Z,32.52
2018-07-16T11:24:33.256Z,32.79
2018-07-16T11:25:46.734Z,33.14
2018-07-16T11:26:53.753Z,33.42
2018-07-16T11:28:01.492Z,33.20
2018-07-16T11:29:06.944Z,32.98
2018-07-16T11:30:11.672Z,33.28
2018-07-16T11:31:16.831Z,33.15
2018-07-16T11:32:22.605Z,33.46
2018-07-16T11:33:27.325Z,33.39
2018-07-16T11:34:34.413Z,32.99
2018-07-16T11:35:39.436Z,32.67
2018-07-16T11:36:44.786Z,32.82
2018-07-16T11:37:51.553Z,32.37
2018-07-16T11:38:56.242Z,32.44
2018-07-16T11:40:02.046Z,32.40
2018-07-16T11:41:08.653Z,32.50
2018-07-16T11:42:16.317Z,32.69
2018-07-16T11:43:21.056Z,32.97
2018-07-16T11:44:26.518Z,32.93
2018-07-16T11:45:31.235Z,32.79
2018-07-16T11:46:37.674Z,33.07
2018-07-16T11:47:42.358Z,32.79
2018-07-16T11:48:50.197Z,32.94
2018-07-16T11:50:03.344Z,32.23
2018-07-16T11:51:10.480Z,32.39
2018-07-16T11:52:16.185Z,31.95
2018-07-16T11:53:21.694Z,31.46
2018-07-16T11:54:27.247Z,31.39
2018-07-16T11:55:31.984Z,30.95
2018-07-16T11:56:37.106Z,30.66
2018-07-16T11:57:42.649Z,30.84
2018-07-16T11:58:47.426Z,31.15
2018-07-16T11:59:53.403Z,31.29
2018-07-16T12:00:58.134Z,31.11
2018-07-16T12:02:02.843Z,31.50
2018-07-16T12:03:07.846Z,31.39
2018-07-16T12:04:14.209Z,31.52
2018-07-16T12:05:20.393Z,31.46
2018-07-16T12:06:26.398Z,31.50
2018-07-16T12:07:31.095Z,31.37
2018-07-16T12:08:35.882Z,31.34
2018-07-16T12:09:40.661Z,31.06
2018-07-16T12:10:46.417Z,30.87
2018-07-16T12:11:51.437Z,30.87
2018-07-16T12:12:56.175Z,30.89
2018-07-16T12:14:02.599Z,31.50
2018-07-16T12:15:07.747Z,31.85
2018-07-16T12:16:13.412Z,31.21
2018-07-16T12:17:18.121Z,31.03
2018-07-16T12:18:23.458Z,30.78
2018-07-16T12:19:28.182Z,30.39
2018-07-16T12:20:34.037Z,30.26
2018-07-16T12:21:38.698Z,29.96
2018-07-16T12:22:44.267Z,29.92
2018-07-16T12:23:50.579Z,30.15
2018-07-16T12:24:57.725Z,29.89
2018-07-16T12:26:07.588Z,29.33
2018-07-16T12:27:14.327Z,29.18
2018-07-16T12:28:20.932Z,29.12
2018-07-16T12:29:32.574Z,29.40
2018-07-16T12:30:40.472Z,29.73
2018-07-16T12:31:45.217Z,29.57
2018-07-16T12:32:52.482Z,29.35
2018-07-16T12:34:01.510Z,29.22
2018-07-16T12:35:10.598Z,29.21
2018-07-16T12:36:31.704Z,29.30
2018-07-16T12:37:38.131Z,29.64
2018-07-16T12:38:43.649Z,29.85
2018-07-16T12:39:48.345Z,29.82
2018-07-16T12:40:56.377Z,29.82
2018-07-16T12:42:01.106Z,29.89
2018-07-16T12:43:06.861Z,29.91
2018-07-16T12:44:20.974Z,29.76
2018-07-16T12:45:27.946Z,29.71
2018-07-16T12:46:32.970Z,29.61
2018-07-16T12:47:52.617Z,29.66
2018-07-16T12:48:58.974Z,29.95
2018-07-16T12:50:05.689Z,30.08
2018-07-16T12:51:11.882Z,30.30
2018-07-16T12:52:16.491Z,30.58
2018-07-16T12:53:21.198Z,30.69
2018-07-16T12:54:26.771Z,31.16
2018-07-16T12:55:34.328Z,31.67
2018-07-16T12:56:39.582Z,31.66
2018-07-16T12:57:44.282Z,31.37
2018-07-16T12:58:49.041Z,31.42
2018-07-16T12:59:55.694Z,31.50
2018-07-16T13:01:01.486Z,31.10
2018-07-16T13:02:08.372Z,31.31
2018-07-16T13:03:15.848Z,31.87
2018-07-16T13:04:21.586Z,31.74
2018-07-16T13:05:26.312Z,32.27
2018-07-16T13:06:31.690Z,32.53
2018-07-16T13:07:37.287Z,32.03
2018-07-16T13:08:43.990Z,32.04
2018-07-16T13:09:49.798Z,31.71
2018-07-16T13:10:56.411Z,31.97
2018-07-16T13:12:02.766Z,31.54
2018-07-16T13:13:07.786Z,31.45
2018-07-16T13:14:12.371Z,31.13
2018-07-16T13:15:18.728Z,31.03
2018-07-16T13:16:25.121Z,31.12
2018-07-16T13:17:29.696Z,30.84
2018-07-16T13:18:35.320Z,30.41
2018-07-16T13:19:42.208Z,30.42
2018-07-16T13:20:47.776Z,30.52
2018-07-16T13:21:58.169Z,30.65
2018-07-16T13:23:03.607Z,30.12
2018-07-16T13:24:12.598Z,30.10
2018-07-16T13:25:18.725Z,30.03
2018-07-16T13:26:24.300Z,29.92
2018-07-16T13:27:28.886Z,29.96
2018-07-16T13:28:34.411Z,29.76
2018-07-16T13:29:39.067Z,30.07
2018-07-16T13:30:43.712Z,29.94
2018-07-16T13:31:48.295Z,29.86
2018-07-16T13:32:52.958Z,29.83
2018-07-16T13:34:00.557Z,29.32
2018-07-16T13:35:06.625Z,29.16
2018-07-16T13:36:12.493Z,29.20
2018-07-16T13:37:17.872Z,29.32
2018-07-16T13:38:24.334Z,29.05
2018-07-16T13:39:29.159Z,29.17
2018-07-16T13:40:34.662Z,29.23
2018-07-16T13:41:39.825Z,28.85
2018-07-16T13:42:45.044Z,28.83
2018-07-16T13:43:53.201Z,28.54
2018-07-16T13:44:58.799Z,28.72
2018-07-16T13:46:05.104Z,28.94
2018-07-16T13:47:10.351Z,28.78
2018-07-16T13:48:15.037Z,28.88
2018-07-16T13:49:24.658Z,28.64
2018-07-16T13:50:29.609Z,28.52
2018-07-16T13:51:35.140Z,29.35
2018-07-16T13:52:45.105Z,30.25
2018-07-16T13:53:49.830Z,30.78
2018-07-16T13:54:55.170Z,31.41
2018-07-16T13:56:03.438Z,31.68
2018-07-16T13:57:09.043Z,32.20
2018-07-16T13:58:14.218Z,32.22
2018-07-16T13:59:19.144Z,32.58
2018-07-16T14:00:24.211Z,32.66
2018-07-16T14:01:31.804Z,32.43
2018-07-16T14:02:36.826Z,32.39
2018-07-16T14:03:43.093Z,32.56
2018-07-16T14:04:48.399Z,32.21
2018-07-16T14:05:54.460Z,31.92
2018-07-16T14:06:59.101Z,32.04
2018-07-16T14:08:04.199Z,31.42
2018-07-16T14:09:09.290Z,31.12
2018-07-16T14:10:13.978Z,30.97
2018-07-16T14:11:20.571Z,31.32
2018-07-16T14:12:25.698Z,31.67
2018-07-16T14:13:31.523Z,31.26
2018-07-16T14:14:37.680Z,31.66
2018-07-16T14:15:42.743Z,32.48